Time;durP1;ratioP1;P1;durP2;ratioP2;P2;SDS_P1;SDS_P2;PMS_P1;PMS_P2;Temp;Humidity;BMP_temperature;BMP_pressure;BME280_temperature;BME280_humidity;BME280_pressure;Samples;Min_cycle;Max_cycle;Signal;HPM_P1;HPM_P2
2022/07/13 00:00:09;;;;;;;3.90;1.40;;;;;;;19.47;61.64;100201.28;343829;28;1086;-73
2022/07/13 00:00:21;;;;;;;4.13;1.50;;;;;;;19.48;61.39;100200.38;343513;28;1459;-73
2022/07/13 00:00:33;;;;;;;4.18;1.50;;;;;;;19.49;61.16;100199.41;343790;28;1042;-73
2022/07/13 00:00:44;;;;;;;3.67;1.40;;;;;;;19.50;61.29;100200.28;343815;28;1042;-73
2022/07/13 00:00:56;;;;;;;2.65;1.38;;;;;;;19.50;61.22;100203.75;343675;28;1381;-73
2022/07/13 00:01:09;;;;;;;2.80;1.60;;;;;;;19.51;61.39;100207.22;343487;28;2069;-73
2022/07/13 00:01:21;;;;;;;3.60;1.50;;;;;;;19.51;61.24;100208.06;343248;28;1921;-73
2022/07/13 00:01:33;;;;;;;4.30;1.45;;;;;;;19.51;61.16;100200.16;343352;28;1484;-73
2022/07/13 00:01:45;;;;;;;5.00;1.30;;;;;;;19.52;61.12;100201.88;343118;28;2030;-73
2022/07/13 00:01:57;;;;;;;7.10;1.40;;;;;;;19.52;61.60;100203.66;343634;28;1820;-73
2022/07/13 00:02:09;;;;;;;7.72;1.40;;;;;;;19.52;61.87;100199.22;342155;28;1793;-73
2022/07/13 00:02:21;;;;;;;5.38;1.40;;;;;;;19.54;61.55;100207.91;342329;28;1108;-73
2022/07/13 00:02:33;;;;;;;2.80;1.40;;;;;;;19.55;61.26;100203.47;342173;28;1052;-72
2022/07/13 00:02:45;;;;;;;3.13;1.35;;;;;;;19.55;60.82;100203.47;342400;28;1050;-72
2022/07/13 00:02:57;;;;;;;2.85;1.27;;;;;;;19.55;61.42;100199.03;342707;28;1335;-73
2022/07/13 00:03:10;;;;;;;7.15;1.52;;;;;;;19.55;61.24;100199.03;343522;28;1783;-73
2022/07/13 00:03:22;;;;;;;7.60;1.70;;;;;;;19.56;61.55;100202.53;343599;28;1410;-73
2022/07/13 00:03:35;;;;;;;3.17;1.40;;;;;;;19.55;61.05;100199.03;343530;28;1349;-73
2022/07/13 00:03:47;;;;;;;3.70;1.40;;;;;;;19.55;61.21;100203.47;343509;28;1055;-73
2022/07/13 00:03:59;;;;;;;3.78;1.50;;;;;;;19.56;61.47;100199.91;343536;28;1367;-73
2022/07/13 00:04:12;;;;;;;3.63;1.70;;;;;;;19.55;61.26;100204.31;343479;28;1030;-73
2022/07/13 00:04:24;;;;;;;2.95;1.50;;;;;;;19.55;61.29;100208.75;343483;28;1019;-73
2022/07/13 00:04:36;;;;;;;2.42;1.48;;;;;;;19.55;61.48;100206.09;343535;28;1286;-72
2022/07/13 00:04:48;;;;;;;3.75;1.38;;;;;;;19.53;61.31;100205.34;343510;28;1182;-72
2022/07/13 00:05:00;;;;;;;4.47;1.35;;;;;;;19.54;61.34;100201.78;344329;28;1066;-72
2022/07/13 00:05:12;;;;;;;4.88;1.38;;;;;;;19.54;61.16;100210.53;344943;28;1075;-72
2022/07/13 00:05:24;;;;;;;4.28;1.45;;;;;;;19.55;61.26;100209.56;343874;28;2196;-72
2022/07/13 00:05:36;;;;;;;4.57;1.65;;;;;;;19.55;61.00;100204.31;343874;28;1267;-73
2022/07/13 00:05:48;;;;;;;4.88;1.55;;;;;;;19.55;61.20;100206.09;343611;28;1051;-73
2022/07/13 00:06:00;;;;;;;4.15;1.55;;;;;;;19.53;61.60;100206.19;343582;28;1280;-73
2022/07/13 00:06:12;;;;;;;3.97;1.40;;;;;;;19.54;61.24;100207.91;343817;28;1070;-73
2022/07/13 00:06:24;;;;;;;2.17;1.30;;;;;;;19.52;61.16;100207.16;343768;28;1265;-73
2022/07/13 00:06:36;;;;;;;2.15;1.33;;;;;;;19.54;61.47;100204.41;343619;28;980;-73
2022/07/13 00:06:48;;;;;;;4.05;1.40;;;;;;;19.52;61.52;100204.50;343928;28;1213;-73
2022/07/13 00:07:00;;;;;;;4.70;1.40;;;;;;;19.52;61.23;100201.88;343739;28;1330;-73
2022/07/13 00:07:12;;;;;;;5.60;1.52;;;;;;;19.50;61.49;100203.75;343903;28;1214;-73
2022/07/13 00:07:24;;;;;;;6.43;1.60;;;;;;;19.49;61.31;100199.41;342775;28;1783;-73
2022/07/13 00:07:37;;;;;;;6.05;1.60;;;;;;;19.50;61.30;100211.66;341185;28;4412;-73
2022/07/13 00:07:49;;;;;;;3.53;1.50;;;;;;;19.50;61.18;100211.66;342760;28;2956;-73
2022/07/13 00:08:01;;;;;;;3.63;1.50;;;;;;;19.52;61.15;100209.78;342763;28;1838;-72
2022/07/13 00:08:13;;;;;;;3.03;1.50;;;;;;;19.53;61.08;100200.06;343391;28;2997;-72
2022/07/13 00:08:25;;;;;;;3.85;1.50;;;;;;;19.53;60.87;100206.19;343194;28;1177;-72
2022/07/13 00:08:36;;;;;;;3.35;1.40;;;;;;;19.52;60.83;100204.50;343081;28;1217;-72
2022/07/13 00:08:48;;;;;;;4.05;1.50;;;;;;;19.54;60.87;100205.25;343448;28;968;-72
2022/07/13 00:09:00;;;;;;;3.60;1.50;;;;;;;19.53;60.70;100208.81;342847;28;1786;-72
2022/07/13 00:09:12;;;;;;;3.22;1.52;;;;;;;19.53;60.61;100200.91;343699;28;1038;-72
2022/07/13 00:09:24;;;;;;;2.40;1.40;;;;;;;19.56;60.55;100203.38;343720;28;1047;-73
2022/07/13 00:09:36;;;;;;;3.45;1.40;;;;;;;19.56;60.30;100208.66;343196;28;2868;-73
2022/07/13 00:09:48;;;;;;;2.85;1.40;;;;;;;19.57;60.22;100206.84;343496;28;1386;-73
2022/07/13 00:10:01;;;;;;;2.85;1.30;;;;;;;19.56;60.57;100202.53;343322;28;1893;-73
2022/07/13 00:10:13;;;;;;;2.08;1.60;;;;;;;19.55;60.63;100204.31;343768;28;1044;-73
2022/07/13 00:10:25;;;;;;;2.30;1.60;;;;;;;19.57;60.17;100212.13;343122;28;1576;-73
2022/07/13 00:10:37;;;;;;;2.22;1.42;;;;;;;19.57;60.24;100206.84;342986;28;1304;-73
2022/07/13 00:10:49;;;;;;;2.50;1.40;;;;;;;19.54;60.77;100207.91;342334;28;1284;-73
2022/07/13 00:11:01;;;;;;;2.50;1.40;;;;;;;19.53;60.87;100210.63;343638;28;1767;-73
2022/07/13 00:11:13;;;;;;;1.45;1.35;;;;;;;19.52;60.85;100201.88;343922;28;775;-73
2022/07/13 00:11:25;;;;;;;1.70;1.40;;;;;;;19.52;61.07;100207.16;343528;28;1374;-73
2022/07/13 00:11:38;;;;;;;3.05;1.50;;;;;;;19.50;60.97;100205.56;343525;28;1087;-73
2022/07/13 00:11:50;;;;;;;3.58;1.42;;;;;;;19.46;61.23;100202.25;343582;28;1063;-73
2022/07/13 00:12:02;;;;;;;3.65;1.50;;;;;;;19.45;61.51;100208.44;343231;28;1359;-73
2022/07/13 00:12:14;;;;;;;4.00;1.42;;;;;;;19.43;61.73;100204.22;343559;28;1320;-73
2022/07/13 00:12:26;;;;;;;3.85;1.50;;;;;;;19.41;61.85;100206.94;343779;28;876;-73
2022/07/13 00:12:39;;;;;;;4.18;1.63;;;;;;;19.40;62.03;100205.25;343398;28;1747;-73
2022/07/13 00:12:51;;;;;;;3.70;1.70;;;;;;;19.41;62.13;100206.94;344582;28;1585;-73
2022/07/13 00:13:03;;;;;;;4.22;1.60;;;;;;;19.40;62.06;100205.25;344680;28;1273;-73
2022/07/13 00:13:15;;;;;;;4.00;1.50;;;;;;;19.41;61.93;100200.81;343853;28;1228;-73
2022/07/13 00:13:27;;;;;;;3.72;1.40;;;;;;;19.41;61.87;100203.47;343773;28;1238;-73
2022/07/13 00:13:39;;;;;;;3.00;1.40;;;;;;;19.41;61.56;100206.94;343053;28;1718;-73
2022/07/13 00:13:51;;;;;;;3.78;1.42;;;;;;;19.40;61.65;100194.72;342284;28;1078;-73
2022/07/13 00:14:03;;;;;;;4.20;1.52;;;;;;;19.43;61.74;100205.06;342210;28;1271;-73
2022/07/13 00:14:16;;;;;;;3.35;1.70;;;;;;;19.41;61.61;100204.31;341743;28;1757;-73
2022/07/13 00:14:28;;;;;;;3.22;1.60;;;;;;;19.41;61.64;100199.03;341867;28;1466;-73
2022/07/13 00:14:40;;;;;;;2.88;1.45;;;;;;;19.41;61.64;100201.66;342242;28;1351;-72
2022/07/13 00:14:52;;;;;;;2.78;1.40;;;;;;;19.40;61.91;100205.25;342260;28;1047;-72
2022/07/13 00:15:05;;;;;;;2.92;1.52;;;;;;;19.38;62.11;100204.50;341663;28;1900;-72
2022/07/13 00:15:16;;;;;;;4.35;1.70;;;;;;;19.38;62.42;100196.59;341259;28;1733;-73
2022/07/13 00:15:28;;;;;;;4.20;1.50;;;;;;;19.38;62.42;100201.88;343792;28;1010;-73
2022/07/13 00:15:40;;;;;;;3.05;1.35;;;;;;;19.37;62.06;100208.06;343690;28;1008;-73
2022/07/13 00:15:52;;;;;;;3.60;1.42;;;;;;;19.35;62.07;100202.88;342538;28;1981;-73
2022/07/13 00:16:05;;;;;;;3.70;1.40;;;;;;;19.34;62.42;100200.34;345060;28;1433;-73
2022/07/13 00:16:17;;;;;;;3.90;1.40;;;;;;;19.35;62.12;100202.03;344504;28;1927;-72
2022/07/13 00:16:29;;;;;;;3.33;1.50;;;;;;;19.34;61.83;100203.00;344629;28;1774;-72
2022/07/13 00:16:41;;;;;;;3.08;1.52;;;;;;;19.34;61.61;100197.72;343427;28;1335;-72
2022/07/13 00:16:53;;;;;;;3.70;1.65;;;;;;;19.34;61.60;100205.63;343246;28;1051;-72
2022/07/13 00:17:06;;;;;;;4.68;1.63;;;;;;;19.31;61.58;100198.72;343253;28;1019;-72
2022/07/13 00:17:18;;;;;;;5.55;1.75;;;;;;;19.32;61.51;100204.88;343519;28;1878;-72
2022/07/13 00:17:30;;;;;;;3.78;1.50;;;;;;;19.34;61.47;100195.09;343998;28;1830;-72
2022/07/13 00:17:42;;;;;;;5.43;1.40;;;;;;;19.32;61.55;100187.25;343768;28;1071;-72
2022/07/13 00:17:55;;;;;;;4.72;1.50;;;;;;;19.33;61.85;100198.66;342995;28;1838;-72
2022/07/13 00:18:07;;;;;;;3.17;1.42;;;;;;;19.32;61.70;100194.34;342668;28;741;-73
2022/07/13 00:18:19;;;;;;;2.70;1.40;;;;;;;19.32;61.70;100194.34;342013;28;1782;-72
2022/07/13 00:18:31;;;;;;;4.60;1.65;;;;;;;19.29;61.83;100197.13;343263;28;1857;-72
2022/07/13 00:18:43;;;;;;;5.18;1.65;;;;;;;19.28;61.60;100191.03;343456;28;1163;-72
2022/07/13 00:18:55;;;;;;;4.25;1.55;;;;;;;19.29;61.87;100202.41;343478;28;1333;-73
2022/07/13 00:19:07;;;;;;;2.57;1.47;;;;;;;19.29;62.05;100186.59;343488;28;1111;-73
2022/07/13 00:19:19;;;;;;;2.13;1.35;;;;;;;19.29;62.14;100191.88;342900;28;1829;-72
2022/07/13 00:19:31;;;;;;;2.45;1.40;;;;;;;19.32;62.04;100191.69;343630;28;1448;-73
2022/07/13 00:19:43;;;;;;;2.97;1.50;;;;;;;19.34;62.15;100190.66;343539;28;1751;-73
2022/07/13 00:19:56;;;;;;;3.67;1.60;;;;;;;19.36;61.57;100193.19;343738;28;1873;-73
2022/07/13 00:20:08;;;;;;;3.58;1.60;;;;;;;19.38;61.25;100193.09;344764;28;1663;-73
2022/07/13 00:20:21;;;;;;;2.47;1.45;;;;;;;19.39;60.88;100198.28;342310;28;1157;-73
2022/07/13 00:20:33;;;;;;;1.88;1.40;;;;;;;19.39;60.93;100193.00;342175;28;1288;-73
2022/07/13 00:20:45;;;;;;;1.85;1.30;;;;;;;19.38;61.11;100191.31;343406;28;1940;-73
2022/07/13 00:20:57;;;;;;;2.88;1.40;;;;;;;19.38;61.86;100195.72;343284;28;1248;-73
2022/07/13 00:21:10;;;;;;;2.97;1.30;;;;;;;19.38;61.49;100196.59;343206;28;1293;-73
2022/07/13 00:21:22;;;;;;;2.30;1.27;;;;;;;19.35;61.62;100188.84;343607;28;1372;-73
2022/07/13 00:21:40;;;;;;;2.63;1.45;;;;;;;19.36;61.66;100198.47;343508;28;1141;-72
2022/07/13 00:21:54;;;;;;;3.35;1.50;;;;;;;19.35;61.54;100191.50;343303;28;1149;-72
2022/07/13 00:22:06;;;;;;;2.60;1.40;;;;;;;19.36;61.49;100193.19;341299;28;1528;-72
2022/07/13 00:22:18;;;;;;;2.95;1.40;;;;;;;19.36;61.67;100193.19;342209;28;1818;-72
2022/07/13 00:22:31;;;;;;;3.20;1.40;;;;;;;19.37;61.85;100194.88;343696;28;1197;-72
2022/07/13 00:22:43;;;;;;;3.67;1.50;;;;;;;19.38;61.79;100195.72;343739;28;1083;-72
2022/07/13 00:22:55;;;;;;;3.97;1.48;;;;;;;19.36;62.10;100194.03;343581;28;1034;-72
2022/07/13 00:23:08;;;;;;;4.55;1.48;;;;;;;19.38;61.65;100193.09;342215;28;1268;-72
2022/07/13 00:23:19;;;;;;;4.22;1.40;;;;;;;19.38;61.34;100191.31;340648;28;4215;-72
2022/07/13 00:23:32;;;;;;;5.82;1.40;;;;;;;19.40;61.30;100192.06;342900;28;2821;-72
2022/07/13 00:23:44;;;;;;;5.20;1.55;;;;;;;19.40;61.41;100185.94;342788;28;1584;-72
2022/07/13 00:23:56;;;;;;;5.30;1.50;;;;;;;19.39;61.55;100190.38;342789;28;1843;-72
2022/07/13 00:24:08;;;;;;;4.90;1.48;;;;;;;19.38;61.61;100187.81;343651;28;1630;-72
2022/07/13 00:24:20;;;;;;;4.80;1.50;;;;;;;19.35;61.90;100188.84;344678;28;1640;-72
2022/07/13 00:24:32;;;;;;;4.00;1.52;;;;;;;19.36;61.76;100193.19;343949;28;1136;-72
2022/07/13 00:24:44;;;;;;;3.40;1.42;;;;;;;19.35;62.26;100196.75;344613;28;1561;-72
2022/07/13 00:24:56;;;;;;;4.45;1.50;;;;;;;19.36;62.07;100191.41;344668;28;1698;-72
2022/07/13 00:25:08;;;;;;;5.50;1.50;;;;;;;19.36;61.79;100187.94;344966;28;1163;-72
2022/07/13 00:25:21;;;;;;;3.95;1.52;;;;;;;19.36;61.81;100185.28;344056;28;2321;-72
2022/07/13 00:25:33;;;;;;;3.80;1.52;;;;;;;19.35;61.77;100188.84;344076;28;1933;-72
2022/07/13 00:25:45;;;;;;;3.53;1.50;;;;;;;19.36;61.68;100193.19;343687;28;1046;-72
2022/07/13 00:25:57;;;;;;;3.05;1.50;;;;;;;19.37;61.58;100189.63;342944;28;1629;-72
2022/07/13 00:26:09;;;;;;;2.88;1.40;;;;;;;19.36;61.81;100185.28;342732;28;1564;-72
2022/07/13 00:26:21;;;;;;;3.67;1.25;;;;;;;19.35;62.00;100186.22;341421;28;1880;-72
2022/07/13 00:26:33;;;;;;;4.38;1.35;;;;;;;19.36;61.34;100193.19;342094;28;1990;-73
2022/07/13 00:26:45;;;;;;;3.67;1.40;;;;;;;19.38;61.33;100191.31;342076;28;1492;-73
2022/07/13 00:26:57;;;;;;;3.65;1.50;;;;;;;19.38;62.19;100193.97;342535;28;1344;-73
2022/07/13 00:27:09;;;;;;;4.18;1.40;;;;;;;19.35;62.24;100180.94;342153;28;1255;-72
2022/07/13 00:27:21;;;;;;;5.00;1.50;;;;;;;19.36;61.95;100187.94;341553;28;1914;-72
2022/07/13 00:27:33;;;;;;;3.83;1.52;;;;;;;19.34;61.93;100192.44;343411;28;1806;-72
2022/07/13 00:27:45;;;;;;;4.60;1.52;;;;;;;19.33;61.88;100188.09;343462;28;1079;-72
2022/07/13 00:27:57;;;;;;;6.35;1.60;;;;;;;19.30;62.08;100181.25;342817;28;1834;-72
2022/07/13 00:28:09;;;;;;;5.70;1.60;;;;;;;19.31;61.91;100187.34;343204;28;1522;-72
2022/07/13 00:28:21;;;;;;;4.68;1.50;;;;;;;19.32;61.74;100191.69;343324;28;1099;-72
2022/07/13 00:28:34;;;;;;;2.90;1.30;;;;;;;19.30;62.12;100188.31;343816;28;765;-72
2022/07/13 00:28:46;;;;;;;2.83;1.45;;;;;;;19.31;61.81;100184.72;343620;28;1097;-72
2022/07/13 00:28:58;;;;;;;2.92;1.60;;;;;;;19.29;61.67;100181.31;343382;28;1320;-73
2022/07/13 00:29:10;;;;;;;2.85;1.50;;;;;;;19.28;61.49;100188.38;344001;28;1042;-73
2022/07/13 00:29:22;;;;;;;3.60;1.45;;;;;;;19.29;61.46;100189.22;342958;28;1807;-72
2022/07/13 00:29:34;;;;;;;4.55;1.70;;;;;;;19.29;61.16;100197.97;343282;28;1657;-72
2022/07/13 00:29:46;;;;;;;3.70;1.75;;;;;;;19.29;61.03;100190.06;343928;28;1504;-72
2022/07/13 00:29:58;;;;;;;3.05;1.63;;;;;;;19.28;61.04;100187.56;343103;28;2123;-72
2022/07/13 00:30:10;;;;;;;3.83;1.70;;;;;;;19.27;61.00;100183.19;343080;28;1771;-72
2022/07/13 00:30:23;;;;;;;4.40;1.60;;;;;;;19.29;60.90;100186.59;343668;28;1802;-73
2022/07/13 00:30:35;;;;;;;3.08;1.60;;;;;;;19.30;60.69;100188.31;343785;28;1083;-72
2022/07/13 00:30:47;;;;;;;2.47;1.60;;;;;;;19.30;60.55;100183.03;343749;28;1074;-73
2022/07/13 00:30:59;;;;;;;2.38;1.60;;;;;;;19.30;60.67;100183.03;343644;28;1265;-72
2022/07/13 00:31:11;;;;;;;2.20;1.40;;;;;;;19.30;60.75;100189.16;343744;28;1237;-72
2022/07/13 00:31:23;;;;;;;2.00;1.50;;;;;;;19.29;60.50;100187.44;342950;28;1694;-72
2022/07/13 00:31:35;;;;;;;1.98;1.48;;;;;;;19.28;61.41;100184.91;344853;28;1822;-72
2022/07/13 00:31:48;;;;;;;2.10;1.40;;;;;;;19.27;61.49;100189.31;345020;28;1106;-72
2022/07/13 00:32:00;;;;;;;3.00;1.30;;;;;;;19.28;61.40;100184.91;344830;28;1368;-72
2022/07/13 00:32:12;;;;;;;4.53;1.45;;;;;;;19.28;61.50;100187.56;344851;28;1094;-72
2022/07/13 00:32:24;;;;;;;5.20;1.60;;;;;;;19.28;61.54;100180.47;343266;28;2164;-72
2022/07/13 00:32:36;;;;;;;3.90;1.50;;;;;;;19.29;61.54;100182.16;343040;28;1958;-72
2022/07/13 00:32:48;;;;;;;2.53;1.30;;;;;;;19.31;61.45;100179.44;343662;28;1172;-72
2022/07/13 00:33:00;;;;;;;2.17;1.30;;;;;;;19.32;61.13;100182.00;343626;28;1323;-73
2022/07/13 00:33:12;;;;;;;3.50;1.30;;;;;;;19.33;61.20;100180.19;343764;28;1052;-72
2022/07/13 00:33:24;;;;;;;4.60;1.40;;;;;;;19.34;61.17;100179.28;342254;28;2068;-73
2022/07/13 00:33:36;;;;;;;4.63;1.50;;;;;;;19.35;61.32;100181.78;342571;28;1924;-72
2022/07/13 00:33:48;;;;;;;2.80;1.40;;;;;;;19.37;61.39;100184.34;343816;28;1331;-72
2022/07/13 00:34:00;;;;;;;3.17;1.40;;;;;;;19.35;61.51;100176.50;343722;28;1313;-72
2022/07/13 00:34:13;;;;;;;4.63;1.40;;;;;;;19.37;61.46;100184.34;343493;28;1099;-72
2022/07/13 00:34:25;;;;;;;4.95;1.40;;;;;;;19.37;61.65;100186.97;342764;28;1771;-72
2022/07/13 00:34:37;;;;;;;3.70;1.35;;;;;;;19.37;61.48;100184.34;344621;28;1847;-73
2022/07/13 00:34:49;;;;;;;3.08;1.33;;;;;;;19.38;61.25;100180.78;344954;28;1011;-73
2022/07/13 00:35:01;;;;;;;4.85;1.30;;;;;;;19.38;60.91;100175.50;344627;28;1193;-73
2022/07/13 00:35:13;;;;;;;5.82;1.30;;;;;;;19.37;60.76;100181.69;344784;28;1067;-73
2022/07/13 00:35:25;;;;;;;5.75;1.40;;;;;;;19.36;60.84;100182.66;342941;28;2060;-73
2022/07/13 00:35:37;;;;;;;5.65;1.63;;;;;;;19.35;60.80;100186.22;344987;28;1791;-72
2022/07/13 00:35:50;;;;;;;6.05;1.70;;;;;;;19.36;60.69;100185.28;344871;28;1074;-72
2022/07/13 00:36:02;;;;;;;5.00;1.55;;;;;;;19.34;60.90;100180.09;344991;28;1314;-72
2022/07/13 00:36:14;;;;;;;2.88;1.48;;;;;;;19.33;60.90;100181.03;344750;28;1793;-72
2022/07/13 00:36:26;;;;;;;2.92;1.42;;;;;;;19.32;60.95;100176.72;344479;28;1803;-72
2022/07/13 00:36:37;;;;;;;3.08;1.60;;;;;;;19.33;61.06;100186.31;344429;28;1700;-72
2022/07/13 00:36:49;;;;;;;2.85;1.70;;;;;;;19.32;61.09;100182.00;344988;28;1070;-72
2022/07/13 00:37:01;;;;;;;3.55;1.60;;;;;;;19.31;61.07;100179.44;344620;28;1867;-72
2022/07/13 00:37:13;;;;;;;4.15;1.60;;;;;;;19.30;60.97;100183.88;345039;28;1075;-73
2022/07/13 00:37:25;;;;;;;3.58;1.50;;;;;;;19.31;61.00;100180.28;345035;28;1377;-73
2022/07/13 00:37:37;;;;;;;2.47;1.40;;;;;;;19.31;60.82;100182.06;345214;28;748;-72
2022/07/13 00:37:50;;;;;;;3.25;1.40;;;;;;;19.28;61.27;100180.47;343534;28;1911;-72
2022/07/13 00:38:02;;;;;;;4.45;1.40;;;;;;;19.27;61.20;100185.84;342822;28;2027;-72
2022/07/13 00:38:14;;;;;;;3.88;1.40;;;;;;;19.25;61.29;100182.44;342908;28;1484;-72
2022/07/13 00:38:26;;;;;;;2.25;1.30;;;;;;;19.23;61.70;100181.69;342473;28;1215;-72
2022/07/13 00:38:38;;;;;;;3.85;1.30;;;;;;;19.21;61.97;100186.22;342997;28;1619;-72
2022/07/13 00:38:49;;;;;;;7.47;1.40;;;;;;;19.20;62.21;100180.09;343597;28;1173;-72
2022/07/13 00:39:01;;;;;;;8.75;1.50;;;;;;;19.19;61.85;100178.38;343503;28;1295;-72
2022/07/13 00:39:14;;;;;;;6.68;1.40;;;;;;;19.21;61.63;100183.56;343730;28;1196;-72
2022/07/13 00:39:26;;;;;;;3.85;1.40;;;;;;;19.23;61.66;100176.41;344015;28;981;-72
2022/07/13 00:39:38;;;;;;;2.78;1.40;;;;;;;19.24;61.79;100178.13;343694;28;1245;-72
2022/07/13 00:39:50;;;;;;;3.30;1.45;;;;;;;19.26;61.71;100184.16;343527;28;1362;-72
2022/07/13 00:40:02;;;;;;;2.88;1.55;;;;;;;19.27;61.35;100184.03;343469;28;1250;-72
2022/07/13 00:40:14;;;;;;;3.30;1.45;;;;;;;19.29;61.55;100183.97;343095;28;2143;-72
2022/07/13 00:40:26;;;;;;;3.30;1.50;;;;;;;19.32;61.30;100183.78;343614;28;1117;-72
2022/07/13 00:40:38;;;;;;;3.80;1.60;;;;;;;19.32;61.15;100182.00;343342;28;1083;-72
2022/07/13 00:40:50;;;;;;;3.40;1.58;;;;;;;19.34;61.38;100181.91;343530;28;1047;-72
2022/07/13 00:41:05;;;;;;;3.80;1.55;;;;;;;19.35;61.36;100180.94;343931;28;1339;-72
2022/07/13 00:41:17;;;;;;;5.25;1.48;;;;;;;19.35;61.46;100183.59;343445;28;1078;-72
2022/07/13 00:41:29;;;;;;;4.80;1.45;;;;;;;19.33;61.93;100182.84;342196;28;1809;-72
2022/07/13 00:41:45;;;;;;;4.47;1.50;;;;;;;19.35;61.81;100181.78;343343;28;1656;-72
2022/07/13 00:41:58;;;;;;;2.70;1.40;;;;;;;19.36;61.52;100180.03;343170;28;2077;-72
2022/07/13 00:42:10;;;;;;;2.25;1.40;;;;;;;19.37;61.69;100184.34;343178;28;1047;-72
2022/07/13 00:42:22;;;;;;;2.15;1.45;;;;;;;19.40;61.22;100185.94;342825;28;1846;-72
2022/07/13 00:42:34;;;;;;;2.95;1.60;;;;;;;19.41;61.48;100183.22;342074;28;1890;-72
2022/07/13 00:42:46;;;;;;;3.47;1.58;;;;;;;19.41;61.73;100182.38;340925;29;1204;-72
2022/07/13 00:42:58;;;;;;;6.30;1.50;;;;;;;19.42;61.47;100177.00;340688;28;1893;-73
2022/07/13 00:43:10;;;;;;;6.78;1.58;;;;;;;19.43;61.19;100168.16;338407;28;5435;-72
2022/07/13 00:43:22;;;;;;;3.40;1.52;;;;;;;19.46;61.36;100182.94;340423;29;2785;-72
2022/07/13 00:43:34;;;;;;;2.75;1.42;;;;;;;19.46;61.45;100178.53;341547;28;1526;-72
2022/07/13 00:43:46;;;;;;;2.63;1.30;;;;;;;19.45;61.36;100176.81;341907;28;2545;-72
2022/07/13 00:44:11;;;;;;;3.50;1.30;;;;;;;19.48;61.49;100181.91;341607;28;1725;-72
2022/07/13 00:44:23;;;;;;;3.85;1.45;;;;;;;19.48;61.32;100176.63;342747;28;1781;-72
2022/07/13 00:44:35;;;;;;;3.28;1.30;;;;;;;19.50;61.34;100179.19;343556;28;1156;-72
2022/07/13 00:44:47;;;;;;;3.53;1.30;;;;;;;19.49;61.42;100182.75;343546;28;1273;-72
2022/07/13 00:44:59;;;;;;;3.15;1.40;;;;;;;19.50;61.30;100187.94;343153;28;1391;-72
2022/07/13 00:45:11;;;;;;;3.03;1.60;;;;;;;19.49;61.48;100178.31;342386;28;2815;-73
2022/07/13 00:45:24;;;;;;;3.55;1.60;;;;;;;19.48;61.48;100176.63;343316;28;1862;-72
2022/07/13 00:45:36;;;;;;;3.00;1.42;;;;;;;19.49;61.15;100183.59;343559;28;1055;-72
2022/07/13 00:45:50;;;;;;;3.35;1.30;;;;;;;19.50;61.10;100181.81;343678;28;1078;-72
2022/07/13 00:46:03;;;;;;;3.90;1.30;;;;;;;19.50;61.02;100180.03;342408;28;1280;-72
2022/07/13 00:46:15;;;;;;;3.55;1.30;;;;;;;19.52;61.04;100182.56;342272;28;1949;-72
2022/07/13 00:46:28;;;;;;;2.28;1.40;;;;;;;19.52;60.90;100177.31;343194;28;1759;-72
2022/07/13 00:46:44;;;;;;;2.22;1.40;;;;;;;19.54;60.72;100180.69;342636;28;1275;-72
2022/07/13 00:46:56;;;;;;;3.13;1.30;;;;;;;19.54;60.75;100181.53;344680;28;1346;-72
2022/07/13 00:47:08;;;;;;;4.40;1.40;;;;;;;19.55;60.77;100179.72;343046;28;2063;-72
2022/07/13 00:47:20;;;;;;;4.47;1.42;;;;;;;19.55;60.86;100177.94;342596;28;2481;-72
2022/07/13 00:47:33;;;;;;;3.15;1.38;;;;;;;19.56;60.81;100179.66;343477;28;1792;-72
2022/07/13 00:47:47;;;;;;;3.03;1.40;;;;;;;19.56;60.76;100173.53;342024;28;1302;-73
2022/07/13 00:47:59;;;;;;;2.17;1.33;;;;;;;19.56;60.93;100171.72;341131;28;1239;-73
2022/07/13 00:48:12;;;;;;;2.72;1.30;;;;;;;19.56;60.76;100179.66;341326;28;1983;-73
2022/07/13 00:48:25;;;;;;;3.20;1.27;;;;;;;19.58;60.54;100176.06;342362;28;969;-72
2022/07/13 00:48:38;;;;;;;3.95;1.30;;;;;;;19.58;60.70;100171.66;343004;28;1184;-72
2022/07/13 00:48:50;;;;;;;3.30;1.33;;;;;;;19.56;60.78;100174.38;343528;28;1099;-72
2022/07/13 00:49:03;;;;;;;3.10;1.40;;;;;;;19.58;60.81;100170.78;344484;28;1318;-72
2022/07/13 00:49:16;;;;;;;2.75;1.30;;;;;;;19.59;60.61;100172.50;341959;28;1059;-72
2022/07/13 00:49:30;;;;;;;3.53;1.35;;;;;;;19.60;60.79;100174.16;343689;28;1409;-72
2022/07/13 00:49:42;;;;;;;2.90;1.40;;;;;;;19.62;60.87;100174.91;342810;28;1727;-72
2022/07/13 00:49:54;;;;;;;3.15;1.30;;;;;;;19.61;60.62;100175.88;343652;28;1122;-72
2022/07/13 00:50:07;;;;;;;2.80;1.35;;;;;;;19.61;60.81;100175.88;343653;28;1129;-72
2022/07/13 00:50:20;;;;;;;1.83;1.20;;;;;;;19.61;60.78;100165.31;343913;28;928;-72
2022/07/13 00:50:32;;;;;;;3.25;1.25;;;;;;;19.59;61.13;100172.50;343438;28;1063;-72
2022/07/13 00:50:45;;;;;;;3.75;1.42;;;;;;;19.59;60.76;100168.06;344092;28;1637;-72
2022/07/13 00:50:57;;;;;;;2.67;1.50;;;;;;;19.59;60.68;100169.84;344517;28;1777;-72
2022/07/13 00:51:09;;;;;;;4.20;1.50;;;;;;;19.55;60.81;100175.31;344767;28;1075;-73
2022/07/13 00:51:21;;;;;;;3.40;1.40;;;;;;;19.52;60.72;100178.13;344271;28;1710;-73
2022/07/13 00:51:33;;;;;;;3.55;1.40;;;;;;;19.53;60.47;100176.34;344040;28;1711;-72
2022/07/13 00:51:45;;;;;;;2.55;1.40;;;;;;;19.52;60.42;100172.03;344774;28;1329;-72
2022/07/13 00:51:57;;;;;;;2.25;1.40;;;;;;;19.51;60.95;100173.78;344878;28;1827;-73
2022/07/13 00:52:10;;;;;;;3.33;1.40;;;;;;;19.51;60.98;100181.69;344690;28;968;-73
2022/07/13 00:52:22;;;;;;;4.43;1.40;;;;;;;19.52;60.81;100178.13;344401;28;1289;-72
2022/07/13 00:52:35;;;;;;;5.95;1.40;;;;;;;19.53;60.94;100173.72;343420;28;1264;-72
2022/07/13 00:52:48;;;;;;;7.07;1.40;;;;;;;19.54;60.68;100170.97;343743;28;1106;-72
2022/07/13 00:53:00;;;;;;;7.15;1.40;;;;;;;19.56;60.45;100174.38;342355;28;1811;-72
2022/07/13 00:53:13;;;;;;;6.32;1.50;;;;;;;19.56;60.43;100163.81;343323;28;1035;-72
2022/07/13 00:53:26;;;;;;;5.55;1.40;;;;;;;19.54;60.39;100175.41;342867;28;1944;-72
2022/07/13 00:53:39;;;;;;;7.28;1.50;;;;;;;19.52;60.58;100178.13;343410;28;1840;-72
2022/07/13 00:53:51;;;;;;;4.88;1.50;;;;;;;19.51;60.52;100180.88;342153;28;1138;-72
2022/07/13 00:54:04;;;;;;;3.75;1.50;;;;;;;19.52;60.54;100178.13;342308;28;1698;-72
2022/07/13 00:54:19;;;;;;;4.13;1.35;;;;;;;19.51;60.54;100171.16;341928;28;2000;-72
2022/07/13 00:54:31;;;;;;;4.00;1.40;;;;;;;19.51;60.40;100175.59;342951;28;1733;-73
2022/07/13 00:54:44;;;;;;;3.97;1.45;;;;;;;19.54;60.51;100181.53;343793;28;1027;-72
2022/07/13 00:54:57;;;;;;;3.03;1.27;;;;;;;19.54;60.48;100165.72;343793;28;1150;-72
2022/07/13 00:55:10;;;;;;;1.75;1.20;;;;;;;19.55;60.21;100177.94;341709;28;1951;-72
2022/07/13 00:55:22;;;;;;;1.48;1.20;;;;;;;19.58;60.16;100171.66;341483;28;1847;-72
2022/07/13 00:55:34;;;;;;;1.30;1.20;;;;;;;19.59;60.17;100167.22;342531;28;1269;-72
2022/07/13 00:55:47;;;;;;;2.45;1.30;;;;;;;19.59;60.24;100172.50;342219;28;2050;-72
2022/07/13 00:56:01;;;;;;;2.90;1.40;;;;;;;19.59;60.16;100173.31;340855;29;1376;-72
2022/07/13 00:56:13;;;;;;;3.40;1.40;;;;;;;19.60;60.14;100168.91;341281;29;783;-72
2022/07/13 00:56:26;;;;;;;2.78;1.27;;;;;;;19.61;59.94;100170.59;340210;28;1694;-72
2022/07/13 00:56:38;;;;;;;2.53;1.30;;;;;;;19.61;59.70;100176.72;339684;29;1776;-72
2022/07/13 00:56:50;;;;;;;2.47;1.20;;;;;;;19.62;60.14;100167.00;341037;29;1013;-73
2022/07/13 00:57:07;;;;;;;2.40;1.27;;;;;;;19.62;59.86;100172.28;341598;28;1418;-72
2022/07/13 00:57:20;;;;;;;2.72;1.27;;;;;;;19.62;59.75;100172.28;343798;28;1776;-72
2022/07/13 00:57:36;;;;;;;3.78;1.30;;;;;;;19.62;59.31;100167.00;343088;28;1635;-72
2022/07/13 00:57:48;;;;;;;4.17;1.37;;;;;;;19.59;59.38;100173.31;342190;28;1083;-72
2022/07/13 00:58:01;;;;;;;3.63;1.45;;;;;;;19.60;59.30;100168.91;340929;28;1855;-72
2022/07/13 00:58:13;;;;;;;3.60;1.50;;;;;;;19.60;59.14;100166.25;342532;28;1725;-72
2022/07/13 00:58:25;;;;;;;3.85;1.40;;;;;;;19.59;59.00;100164.56;342518;28;1742;-72
2022/07/13 00:58:37;;;;;;;3.75;1.23;;;;;;;19.59;58.88;100173.31;342017;28;1210;-72
2022/07/13 00:58:49;;;;;;;3.53;1.33;;;;;;;19.56;58.69;100174.38;341745;28;1183;-72